createdAt,value
2022-12-31T00:00:21.051Z,3.08
2022-12-31T00:02:48.279Z,4.28
2022-12-31T00:05:22.122Z,1.48
2022-12-31T00:07:49.307Z,2.65
2022-12-31T00:10:16.464Z,2.85
2022-12-31T00:12:50.046Z,1.70
2022-12-31T00:15:17.279Z,1.10
2022-12-31T00:17:44.391Z,3.60
2022-12-31T00:20:18.009Z,2.03
2022-12-31T00:22:45.173Z,1.50
2022-12-31T00:25:19.384Z,0.47
2022-12-31T00:27:46.568Z,3.05
2022-12-31T00:30:33.243Z,1.85
2022-12-31T00:33:00.352Z,1.58
2022-12-31T00:35:27.560Z,1.80
2022-12-31T00:38:01.011Z,1.48
2022-12-31T00:40:29.342Z,2.25
2022-12-31T00:43:03.042Z,3.15
2022-12-31T00:45:30.146Z,2.22
2022-12-31T00:47:57.371Z,1.38
2022-12-31T00:50:31.026Z,3.55
2022-12-31T00:52:58.111Z,5.78
2022-12-31T00:55:32.034Z,8.40
2022-12-31T00:57:59.098Z,5.20
2022-12-31T01:00:26.213Z,4.03
2022-12-31T01:03:00.117Z,4.85
2022-12-31T01:05:27.330Z,7.57
2022-12-31T01:08:01.005Z,5.53
2022-12-31T01:10:46.761Z,6.65
2022-12-31T01:13:20.053Z,8.30
2022-12-31T01:15:47.229Z,7.85
2022-12-31T01:18:14.491Z,16.42
2022-12-31T01:20:49.025Z,17.33
2022-12-31T01:23:16.116Z,17.65
2022-12-31T01:25:50.125Z,23.08
2022-12-31T01:28:17.298Z,18.90
2022-12-31T01:31:04.123Z,15.65
2022-12-31T01:33:38.153Z,22.00
2022-12-31T01:36:13.068Z,16.00
2022-12-31T01:38:40.684Z,28.25
2022-12-31T01:43:52.019Z,28.27
2022-12-31T01:46:33.049Z,23.33
2022-12-31T01:49:09.063Z,37.13
2022-12-31T01:51:36.278Z,23.30
2022-12-31T01:54:05.257Z,24.58
2022-12-31T01:56:39.033Z,21.02
2022-12-31T01:59:07.373Z,26.25
2022-12-31T02:01:43.142Z,46.08
2022-12-31T02:04:11.812Z,27.92
2022-12-31T02:06:41.026Z,27.17
2022-12-31T02:09:15.048Z,47.53
2022-12-31T02:11:42.152Z,42.38
2022-12-31T02:14:18.087Z,33.47
2022-12-31T02:16:50.792Z,29.35
2022-12-31T02:19:39.165Z,37.40
2022-12-31T02:22:25.229Z,30.60
2022-12-31T02:25:18.075Z,35.83
2022-12-31T02:28:04.138Z,39.05
2022-12-31T02:30:45.071Z,36.80
2022-12-31T02:33:27.080Z,36.25
2022-12-31T02:36:09.169Z,29.55
2022-12-31T02:38:39.869Z,28.35
2022-12-31T02:41:06.939Z,37.55
2022-12-31T02:43:40.028Z,36.22
2022-12-31T02:46:18.171Z,45.60
2022-12-31T02:51:28.212Z,27.65
2022-12-31T02:54:11.046Z,45.33
2022-12-31T02:56:50.314Z,34.22
2022-12-31T03:00:02.046Z,49.47
2022-12-31T03:02:30.793Z,54.15
2022-12-31T03:05:05.037Z,47.40
2022-12-31T03:07:33.316Z,49.67
2022-12-31T03:10:10.099Z,49.25
2022-12-31T03:12:49.892Z,54.95
2022-12-31T03:15:26.047Z,44.28
2022-12-31T03:18:02.049Z,56.88
2022-12-31T03:20:56.070Z,62.28
2022-12-31T03:23:32.059Z,43.75
2022-12-31T03:26:06.108Z,51.42
2022-12-31T03:28:33.183Z,56.78
2022-12-31T03:31:13.162Z,63.65
2022-12-31T03:33:41.371Z,56.00
2022-12-31T03:36:09.755Z,61.85
2022-12-31T03:38:43.041Z,57.53
2022-12-31T03:41:11.121Z,61.40
2022-12-31T03:43:38.269Z,61.90
2022-12-31T03:46:12.117Z,68.90
2022-12-31T03:48:39.912Z,71.53
2022-12-31T03:51:06.997Z,67.97
2022-12-31T03:53:42.056Z,46.20
2022-12-31T03:56:09.173Z,51.70
2022-12-31T03:58:43.101Z,67.20
2022-12-31T04:01:10.306Z,65.45
2022-12-31T04:03:37.473Z,64.15
2022-12-31T04:06:11.085Z,51.50
2022-12-31T04:08:38.159Z,64.15
2022-12-31T04:11:14.727Z,53.67
2022-12-31T04:13:46.101Z,65.68
2022-12-31T04:16:20.131Z,70.20
2022-12-31T04:18:54.213Z,58.83
2022-12-31T04:21:21.299Z,58.85
2022-12-31T04:23:48.489Z,75.93
2022-12-31T04:26:22.115Z,69.85
2022-12-31T04:28:49.286Z,65.50
2022-12-31T04:31:30.182Z,64.07
2022-12-31T04:34:04.011Z,67.00
2022-12-31T04:36:38.096Z,67.40
2022-12-31T04:39:05.317Z,76.25
2022-12-31T04:41:32.479Z,75.03
2022-12-31T04:44:07.062Z,70.25
2022-12-31T04:46:34.725Z,65.72
2022-12-31T04:49:08.132Z,76.80
2022-12-31T04:51:35.726Z,68.38
2022-12-31T04:56:36.059Z,49.03
2022-12-31T04:59:04.381Z,71.32
2022-12-31T05:01:39.317Z,57.65
2022-12-31T05:04:06.499Z,72.82
2022-12-31T05:06:33.723Z,63.88
2022-12-31T05:09:07.078Z,59.63
2022-12-31T05:11:35.649Z,53.50
2022-12-31T05:14:09.146Z,55.70
2022-12-31T05:16:36.334Z,60.13
2022-12-31T05:19:06.255Z,67.65
2022-12-31T05:21:40.071Z,48.75
2022-12-31T05:24:07.337Z,43.70
2022-12-31T05:26:41.090Z,58.95
2022-12-31T05:29:08.538Z,68.68
2022-12-31T05:31:49.120Z,52.88
2022-12-31T05:34:16.194Z,55.80
2022-12-31T05:36:43.305Z,74.57
2022-12-31T05:39:17.104Z,63.72
2022-12-31T05:41:44.197Z,58.90
2022-12-31T05:44:18.123Z,57.40
2022-12-31T05:46:45.385Z,53.53
2022-12-31T05:49:12.455Z,52.88
2022-12-31T05:51:46.096Z,63.90
2022-12-31T05:54:13.212Z,53.05
2022-12-31T05:56:47.129Z,65.30
2022-12-31T05:59:14.404Z,53.28
2022-12-31T06:01:41.531Z,63.90
2022-12-31T06:04:15.114Z,77.70
2022-12-31T06:06:42.312Z,55.88
2022-12-31T06:09:16.140Z,55.88
2022-12-31T06:11:43.356Z,58.05
2022-12-31T06:14:10.888Z,55.00
2022-12-31T06:19:11.223Z,51.88
2022-12-31T06:21:45.123Z,62.53
2022-12-31T06:24:12.295Z,67.05
2022-12-31T06:26:39.387Z,48.67
2022-12-31T06:29:13.100Z,47.53
2022-12-31T06:32:00.160Z,52.28
2022-12-31T06:34:34.242Z,64.45
2022-12-31T06:37:01.341Z,58.30
2022-12-31T06:39:28.692Z,53.58
2022-12-31T06:42:02.143Z,38.90
2022-12-31T06:44:29.296Z,54.75
2022-12-31T06:47:03.129Z,49.80
2022-12-31T06:49:30.234Z,63.17
2022-12-31T06:51:57.403Z,54.40
2022-12-31T06:54:31.125Z,57.63
2022-12-31T06:56:58.402Z,61.15
2022-12-31T06:59:33.144Z,51.72
2022-12-31T07:02:06.046Z,46.42
2022-12-31T07:04:53.171Z,43.63
2022-12-31T07:07:20.219Z,52.13
2022-12-31T07:09:51.213Z,51.45
2022-12-31T07:12:30.122Z,50.60
2022-12-31T07:15:02.841Z,55.65
2022-12-31T07:17:36.116Z,48.95
2022-12-31T07:20:09.888Z,52.60
2022-12-31T07:22:43.129Z,57.67
2022-12-31T07:25:13.616Z,63.70
2022-12-31T07:27:54.120Z,58.13
2022-12-31T07:30:50.125Z,57.28
2022-12-31T07:33:47.119Z,54.58
2022-12-31T07:36:30.585Z,47.20
2022-12-31T07:39:09.129Z,48.85
2022-12-31T07:41:48.239Z,59.53
2022-12-31T07:44:27.149Z,59.67
2022-12-31T07:46:56.122Z,44.75
2022-12-31T07:49:30.118Z,58.00
2022-12-31T07:51:57.424Z,53.00
2022-12-31T07:54:31.161Z,48.58
2022-12-31T07:56:58.406Z,55.95
2022-12-31T07:59:40.138Z,64.90
2022-12-31T08:02:22.771Z,55.83
2022-12-31T08:05:05.152Z,55.60
2022-12-31T08:07:45.661Z,60.13
2022-12-31T08:10:27.214Z,58.20
2022-12-31T08:12:59.205Z,55.60
2022-12-31T08:15:30.284Z,73.45
2022-12-31T08:18:04.134Z,49.70
2022-12-31T08:20:32.916Z,63.20
2022-12-31T08:23:15.164Z,62.05
2022-12-31T08:25:55.475Z,59.30
2022-12-31T08:28:32.137Z,64.72
2022-12-31T08:31:39.168Z,53.45
2022-12-31T08:34:22.143Z,52.50
2022-12-31T08:36:54.364Z,61.47
2022-12-31T08:39:47.308Z,54.63
2022-12-31T08:42:31.951Z,54.00
2022-12-31T08:45:24.332Z,52.90
2022-12-31T08:47:56.423Z,48.58
2022-12-31T08:50:33.118Z,53.03
2022-12-31T08:53:07.166Z,63.25
2022-12-31T08:55:34.367Z,54.25
2022-12-31T08:58:27.153Z,52.35
2022-12-31T09:00:57.538Z,53.45
2022-12-31T09:03:47.295Z,63.13
2022-12-31T09:06:17.482Z,57.90
2022-12-31T09:08:44.544Z,46.33
2022-12-31T09:11:23.488Z,69.80
2022-12-31T09:13:56.672Z,62.72
2022-12-31T09:16:33.191Z,49.60
2022-12-31T09:19:00.290Z,67.88
2022-12-31T09:21:34.134Z,55.42
2022-12-31T09:24:07.513Z,51.63
2022-12-31T09:26:49.184Z,54.72
2022-12-31T09:29:31.335Z,64.60
2022-12-31T09:32:44.158Z,63.72
2022-12-31T09:35:39.429Z,56.30
2022-12-31T09:38:19.235Z,54.92
2022-12-31T09:40:49.120Z,58.65
2022-12-31T09:43:41.182Z,49.30
2022-12-31T09:46:29.859Z,62.03
2022-12-31T09:51:36.436Z,56.95
2022-12-31T09:54:28.167Z,54.63
2022-12-31T09:57:08.425Z,52.20
2022-12-31T09:59:51.157Z,57.42
2022-12-31T10:02:42.323Z,57.05
2022-12-31T10:05:29.152Z,62.17
2022-12-31T10:07:59.087Z,61.67
2022-12-31T10:10:47.207Z,53.25
2022-12-31T10:13:14.252Z,52.28
2022-12-31T10:15:41.668Z,57.95
2022-12-31T10:18:19.158Z,49.67
2022-12-31T10:21:08.180Z,52.35
2022-12-31T10:23:53.902Z,56.97
2022-12-31T10:26:27.346Z,50.22
2022-12-31T10:28:57.274Z,54.83
2022-12-31T10:31:55.349Z,53.70
2022-12-31T10:34:39.077Z,48.67
2022-12-31T10:37:18.203Z,43.13
2022-12-31T10:40:11.173Z,44.40
2022-12-31T10:42:41.113Z,45.60
2022-12-31T10:45:30.182Z,61.83
2022-12-31T10:48:14.475Z,56.20
2022-12-31T10:50:48.172Z,51.22
2022-12-31T10:53:38.563Z,56.40
2022-12-31T10:56:29.249Z,53.50
2022-12-31T10:59:11.504Z,54.30
2022-12-31T11:02:06.401Z,54.00
2022-12-31T11:04:57.992Z,58.63
2022-12-31T11:07:50.179Z,47.33
2022-12-31T11:10:26.881Z,47.90
2022-12-31T11:13:19.204Z,43.97
2022-12-31T11:15:55.586Z,57.33
2022-12-31T11:18:41.195Z,51.10
2022-12-31T11:21:27.969Z,52.63
2022-12-31T11:24:10.171Z,48.78
2022-12-31T11:26:37.228Z,49.33
2022-12-31T11:29:16.261Z,51.97
2022-12-31T11:31:58.107Z,55.70
2022-12-31T11:34:43.247Z,53.13
2022-12-31T11:37:18.258Z,51.53
2022-12-31T11:39:52.224Z,35.97
2022-12-31T11:42:27.757Z,58.72
2022-12-31T11:45:06.329Z,56.55
2022-12-31T11:47:33.413Z,57.30
2022-12-31T11:50:13.188Z,51.63
2022-12-31T11:52:53.185Z,59.92
2022-12-31T11:55:26.059Z,60.55
2022-12-31T11:58:00.187Z,47.40
2022-12-31T12:00:28.243Z,52.47
2022-12-31T12:03:06.217Z,41.72
2022-12-31T12:05:34.572Z,45.63
2022-12-31T12:08:08.267Z,64.95
2022-12-31T12:10:36.841Z,59.42
2022-12-31T12:13:31.208Z,84.28
2022-12-31T12:15:59.304Z,52.40
2022-12-31T12:18:29.330Z,49.42
2022-12-31T12:21:11.220Z,55.92
2022-12-31T12:23:39.088Z,54.38
2022-12-31T12:26:13.218Z,47.60
2022-12-31T12:28:44.809Z,56.35
2022-12-31T12:31:34.382Z,52.08
2022-12-31T12:34:01.588Z,48.90
2022-12-31T12:36:28.661Z,50.47
2022-12-31T12:39:09.189Z,50.78
2022-12-31T12:41:36.279Z,65.55
2022-12-31T12:44:14.249Z,44.47
2022-12-31T12:46:48.311Z,54.20
2022-12-31T12:49:33.278Z,49.75
2022-12-31T12:52:00.392Z,61.53
2022-12-31T12:54:43.236Z,66.30
2022-12-31T12:57:29.453Z,59.83
2022-12-31T13:00:14.202Z,47.42
2022-12-31T13:03:16.845Z,50.65
2022-12-31T13:06:00.247Z,54.33
2022-12-31T13:08:27.313Z,60.88
2022-12-31T13:11:22.188Z,50.55
2022-12-31T13:13:55.354Z,52.58
2022-12-31T13:16:32.269Z,57.00
2022-12-31T13:19:10.602Z,49.30
2022-12-31T13:21:48.316Z,55.22
2022-12-31T13:24:26.076Z,44.38
2022-12-31T13:27:03.208Z,63.30
2022-12-31T13:29:38.253Z,47.20
2022-12-31T13:32:31.211Z,47.58
2022-12-31T13:35:09.291Z,58.08
2022-12-31T13:37:41.104Z,49.95
2022-12-31T13:40:25.229Z,47.03
2022-12-31T13:43:01.255Z,52.70
2022-12-31T13:45:39.236Z,44.38
2022-12-31T13:48:08.976Z,56.17
2022-12-31T13:51:07.297Z,49.17
2022-12-31T13:53:37.451Z,47.50
2022-12-31T13:56:15.222Z,51.92
2022-12-31T13:58:45.829Z,63.97
2022-12-31T14:01:19.310Z,56.47
2022-12-31T14:04:00.511Z,43.05
2022-12-31T14:06:38.235Z,44.60
2022-12-31T14:09:08.100Z,47.97
2022-12-31T14:12:14.220Z,38.22
2022-12-31T14:14:47.159Z,43.83
2022-12-31T14:17:34.231Z,54.53
2022-12-31T14:20:07.026Z,41.80
2022-12-31T14:22:59.211Z,47.05
2022-12-31T14:25:29.878Z,37.65
2022-12-31T14:28:04.493Z,40.75
2022-12-31T14:30:37.482Z,46.03
2022-12-31T14:33:31.283Z,51.17
2022-12-31T14:36:14.053Z,43.80
2022-12-31T14:39:14.267Z,46.30
2022-12-31T14:41:56.679Z,53.15
2022-12-31T14:44:39.285Z,45.63
2022-12-31T14:47:24.832Z,51.22
2022-12-31T14:50:11.295Z,39.85
2022-12-31T14:52:55.408Z,42.17
2022-12-31T14:55:35.257Z,46.25
2022-12-31T15:01:05.584Z,39.35
2022-12-31T15:03:34.150Z,49.40
2022-12-31T15:06:21.370Z,47.75
2022-12-31T15:09:02.460Z,48.85
2022-12-31T15:11:55.518Z,52.55
2022-12-31T15:14:37.862Z,47.85
2022-12-31T15:17:19.331Z,51.67
2022-12-31T15:19:55.572Z,47.05
2022-12-31T15:22:32.318Z,68.80
2022-12-31T15:25:00.987Z,55.03
2022-12-31T15:27:31.674Z,59.05
2022-12-31T15:30:05.373Z,54.42
2022-12-31T15:32:42.974Z,54.80
2022-12-31T15:35:29.391Z,54.20
2022-12-31T15:38:01.330Z,48.40
2022-12-31T15:40:38.285Z,43.75
2022-12-31T15:43:10.975Z,40.58
2022-12-31T15:45:46.442Z,53.95
2022-12-31T15:48:22.175Z,51.00
2022-12-31T15:50:58.335Z,46.28
2022-12-31T15:53:34.044Z,51.75
2022-12-31T15:56:08.265Z,37.45
2022-12-31T15:58:36.643Z,50.97
2022-12-31T16:01:30.375Z,45.83
2022-12-31T16:04:08.843Z,50.03
2022-12-31T16:06:50.623Z,39.72
2022-12-31T16:09:28.678Z,39.63
2022-12-31T16:12:03.295Z,40.92
2022-12-31T16:14:33.319Z,38.05
2022-12-31T16:17:01.023Z,35.85
2022-12-31T16:19:40.428Z,29.70
2022-12-31T16:22:14.970Z,40.58
2022-12-31T16:25:28.494Z,36.35
2022-12-31T16:27:35.914Z,39.05
2022-12-31T16:30:13.255Z,52.63
2022-12-31T16:32:47.316Z,41.85
2022-12-31T16:35:33.362Z,44.90
2022-12-31T16:38:01.268Z,45.00
2022-12-31T16:40:28.489Z,43.40
2022-12-31T16:43:02.278Z,40.75
2022-12-31T16:45:38.554Z,37.15
2022-12-31T16:48:19.454Z,36.17
2022-12-31T16:50:48.009Z,40.50
2022-12-31T16:53:17.559Z,35.45
2022-12-31T16:55:52.272Z,45.08
2022-12-31T16:58:28.860Z,40.83
2022-12-31T17:01:03.339Z,38.05
2022-12-31T17:03:30.858Z,45.45
2022-12-31T17:08:45.325Z,36.65
2022-12-31T17:11:38.282Z,49.97
2022-12-31T17:14:08.402Z,37.53
2022-12-31T17:16:43.278Z,47.17
2022-12-31T17:19:26.632Z,40.28
2022-12-31T17:22:00.323Z,32.33
2022-12-31T17:24:27.618Z,42.50
2022-12-31T17:26:54.768Z,39.22
2022-12-31T17:29:30.281Z,43.80
2022-12-31T17:32:08.386Z,35.45
2022-12-31T17:37:19.110Z,39.00
2022-12-31T17:40:24.517Z,32.67
2022-12-31T17:42:47.470Z,53.15
2022-12-31T17:45:28.328Z,41.80
2022-12-31T17:47:59.781Z,38.55
2022-12-31T17:50:27.531Z,43.55
2022-12-31T17:53:30.287Z,39.42
2022-12-31T17:56:00.479Z,41.63
2022-12-31T17:58:44.434Z,35.15
2022-12-31T18:01:14.538Z,32.97
2022-12-31T18:03:41.695Z,45.45
2022-12-31T18:06:18.331Z,46.63
2022-12-31T18:08:45.464Z,41.50
2022-12-31T18:11:28.463Z,48.45
2022-12-31T18:14:02.356Z,44.30
2022-12-31T18:16:37.394Z,43.33
2022-12-31T18:19:45.899Z,43.55
2022-12-31T18:22:12.287Z,40.78
2022-12-31T18:24:46.305Z,44.00
2022-12-31T18:27:20.117Z,38.83
2022-12-31T18:29:57.798Z,42.35
2022-12-31T18:32:50.316Z,41.20
2022-12-31T18:36:07.767Z,43.33
2022-12-31T18:38:15.534Z,32.03
2022-12-31T18:40:53.361Z,31.42
2022-12-31T18:43:20.914Z,32.55
2022-12-31T18:48:22.283Z,30.25
2022-12-31T18:50:49.479Z,45.38
2022-12-31T18:53:28.356Z,36.00
2022-12-31T18:55:56.826Z,43.72
2022-12-31T18:58:24.474Z,34.20
2022-12-31T19:00:58.483Z,41.03
2022-12-31T19:03:28.069Z,42.15
2022-12-31T19:06:02.324Z,52.45
2022-12-31T19:08:29.415Z,37.17
2022-12-31T19:11:03.479Z,36.95
2022-12-31T19:13:30.579Z,37.75
2022-12-31T19:15:58.699Z,33.90
2022-12-31T19:18:32.340Z,34.97
2022-12-31T19:20:59.408Z,36.75
2022-12-31T19:23:33.419Z,44.78
2022-12-31T19:26:00.751Z,50.45
2022-12-31T19:28:28.470Z,44.70
